Time;durP1;ratioP1;P1;durP2;ratioP2;P2;SDS_P1;SDS_P2;PMS_P1;PMS_P2;Temp;Humidity;BMP_temperature;BMP_pressure;BME280_temperature;BME280_humidity;BME280_pressure;Samples;Min_cycle;Max_cycle;Signal;HPM_P1;HPM_P2
2022/05/18 00:00:49;;;;;;;8.63;7.95;;;;;;;;;;6549566;22;20068;-81
2022/05/18 00:03:22;;;;;;;8.52;7.70;;;;;;;;;;6575591;22;19998;-80
2022/05/18 00:05:52;;;;;;;8.52;7.88;;;;;;;;;;6547218;22;19991;-81
2022/05/18 00:08:22;;;;;;;9.27;8.30;;;;;;;;;;6546643;22;20044;-81
2022/05/18 00:10:52;;;;;;;8.67;7.83;;;;;;;;;;6548488;22;20232;-81
2022/05/18 00:13:23;;;;;;;7.78;7.38;;;;;;;;;;6574994;22;20228;-81
2022/05/18 00:15:53;;;;;;;12.77;8.20;;;;;;;;;;6575122;22;20372;-81
2022/05/18 00:18:23;;;;;;;10.65;9.65;;;;;;;;;;6548150;22;20015;-81
2022/05/18 00:20:54;;;;;;;8.10;7.57;;;;;;;;;;6576342;22;20100;-81
2022/05/18 00:23:24;;;;;;;10.00;9.13;;;;;;;;;;6574976;22;20224;-81
2022/05/18 00:25:54;;;;;;;8.13;7.60;;;;;;;;;;6574253;22;19995;-81
2022/05/18 00:28:25;;;;;;;9.43;8.48;;;;;;;;;;6575497;22;19990;-80
2022/05/18 00:30:56;;;;;;;9.68;8.98;;;;;;;;;;6575756;22;20002;-80
2022/05/18 00:33:27;;;;;;;10.55;8.82;;;;;;;;;;6574097;22;20069;-81
2022/05/18 00:35:57;;;;;;;9.18;8.32;;;;;;;;;;6574128;22;20009;-81
2022/05/18 00:38:27;;;;;;;9.20;8.52;;;;;;;;;;6573757;22;20051;-80
2022/05/18 00:40:58;;;;;;;7.53;7.03;;;;;;;;;;6547838;22;20019;-80
2022/05/18 00:43:28;;;;;;;12.02;7.95;;;;;;;;;;6546520;22;19998;-81
2022/05/18 00:46:00;;;;;;;9.10;8.33;;;;;;;;;;6573508;22;19997;-80
2022/05/18 00:48:31;;;;;;;8.48;7.95;;;;;;;;;;6573297;22;20002;-80
2022/05/18 00:51:04;;;;;;;11.93;10.68;;;;;;;;;;6572951;22;19991;-80
2022/05/18 00:53:36;;;;;;;9.75;8.77;;;;;;;;;;6547101;22;19998;-80
2022/05/18 00:56:08;;;;;;;9.27;8.55;;;;;;;;;;6579631;22;20007;-81
2022/05/18 00:58:53;;;;;;;9.65;8.77;;;;;;;;;;6579384;22;19998;-81
2022/05/18 01:01:24;;;;;;;11.05;10.05;;;;;;;;;;6575583;22;19995;-81
2022/05/18 01:03:54;;;;;;;9.13;8.43;;;;;;;;;;6575747;22;20017;-81
2022/05/18 01:06:35;;;;;;;10.00;9.02;;;;;;;;;;6575437;22;19991;-81
2022/05/18 01:09:07;;;;;;;9.25;8.70;;;;;;;;;;6575192;22;19990;-81
2022/05/18 01:11:40;;;;;;;8.32;7.75;;;;;;;;;;6575091;22;20001;-81
2022/05/18 01:14:15;;;;;;;9.80;9.00;;;;;;;;;;6547649;22;20003;-81
2022/05/18 01:16:46;;;;;;;10.25;9.05;;;;;;;;;;6574985;22;19999;-81
2022/05/18 01:19:25;;;;;;;9.43;8.57;;;;;;;;;;6575838;22;19994;-81
2022/05/18 01:22:02;;;;;;;9.77;8.68;;;;;;;;;;6575315;22;20041;-80
2022/05/18 01:24:56;;;;;;;9.93;9.18;;;;;;;;;;6574289;22;20056;-81
2022/05/18 01:27:26;;;;;;;9.55;8.27;;;;;;;;;;6541916;22;19995;-80
2022/05/18 01:29:57;;;;;;;9.65;8.63;;;;;;;;;;6569898;22;19991;-81
2022/05/18 01:32:38;;;;;;;11.45;10.27;;;;;;;;;;6570594;22;20007;-80
2022/05/18 01:35:09;;;;;;;9.20;8.35;;;;;;;;;;6575048;22;20006;-80
2022/05/18 01:37:40;;;;;;;14.05;12.63;;;;;;;;;;6553576;22;19999;-80
2022/05/18 01:40:20;;;;;;;11.02;10.02;;;;;;;;;;6546489;22;20005;-80
2022/05/18 01:42:54;;;;;;;9.55;8.95;;;;;;;;;;6554557;22;19994;-80
2022/05/18 01:45:25;;;;;;;11.88;10.98;;;;;;;;;;6584535;22;19991;-81
2022/05/18 01:48:06;;;;;;;11.02;10.02;;;;;;;;;;6585167;22;19986;-81
2022/05/18 01:50:36;;;;;;;16.42;9.50;;;;;;;;;;6583533;22;20022;-81
2022/05/18 01:53:07;;;;;;;14.32;12.70;;;;;;;;;;6582790;22;19983;-81
2022/05/18 01:55:37;;;;;;;11.40;10.35;;;;;;;;;;6577410;22;20065;-80
2022/05/18 01:58:08;;;;;;;15.40;12.68;;;;;;;;;;6549467;22;20030;-80
2022/05/18 02:00:39;;;;;;;13.35;11.25;;;;;;;;;;6578980;22;20016;-80
2022/05/18 02:03:09;;;;;;;11.93;10.98;;;;;;;;;;6578637;22;20393;-81
2022/05/18 02:05:40;;;;;;;12.52;11.32;;;;;;;;;;6576389;22;20046;-80
2022/05/18 02:08:11;;;;;;;14.10;10.43;;;;;;;;;;6578535;22;19998;-80
2022/05/18 02:10:42;;;;;;;14.77;9.73;;;;;;;;;;6550562;22;19995;-80
2022/05/18 02:13:12;;;;;;;14.35;11.10;;;;;;;;;;6579775;22;20002;-81
2022/05/18 02:15:43;;;;;;;11.80;10.82;;;;;;;;;;6555002;22;19999;-81
2022/05/18 02:18:13;;;;;;;16.00;11.18;;;;;;;;;;6556169;22;19995;-81
2022/05/18 02:20:44;;;;;;;10.80;9.93;;;;;;;;;;6579927;22;20002;-81
2022/05/18 02:23:14;;;;;;;16.02;11.15;;;;;;;;;;6549760;22;20005;-81
2022/05/18 02:25:44;;;;;;;10.30;9.30;;;;;;;;;;6576539;22;20056;-81
2022/05/18 02:28:14;;;;;;;9.95;9.20;;;;;;;;;;6577447;22;20153;-81
2022/05/18 02:30:45;;;;;;;9.95;9.23;;;;;;;;;;6576549;22;20009;-81
2022/05/18 02:33:15;;;;;;;9.35;8.73;;;;;;;;;;6548846;22;20002;-81
2022/05/18 02:35:45;;;;;;;9.52;8.65;;;;;;;;;;6576299;22;19994;-81
2022/05/18 02:38:16;;;;;;;21.42;10.15;;;;;;;;;;6576670;22;20013;-81
2022/05/18 02:40:46;;;;;;;9.63;9.02;;;;;;;;;;6576852;22;19991;-81
2022/05/18 02:43:16;;;;;;;8.20;7.13;;;;;;;;;;6577326;22;19991;-81
2022/05/18 02:45:47;;;;;;;8.43;6.15;;;;;;;;;;6576615;22;20021;-82
2022/05/18 02:48:17;;;;;;;6.72;5.90;;;;;;;;;;6575990;22;20002;-81
2022/05/18 02:50:47;;;;;;;6.28;5.88;;;;;;;;;;6576688;22;19995;-81
2022/05/18 02:53:17;;;;;;;5.82;5.32;;;;;;;;;;6574701;22;19995;-81
2022/05/18 02:56:06;;;;;;;5.32;5.03;;;;;;;;;;6569273;22;20041;-81
2022/05/18 02:58:38;;;;;;;5.32;4.43;;;;;;;;;;6567740;22;20387;-82
2022/05/18 03:01:13;;;;;;;5.40;4.90;;;;;;;;;;6567459;22;20304;-81
2022/05/18 03:03:45;;;;;;;4.63;4.38;;;;;;;;;;6538968;22;20030;-82
2022/05/18 03:06:16;;;;;;;4.55;4.18;;;;;;;;;;6576282;22;19995;-81
2022/05/18 03:08:46;;;;;;;6.03;5.22;;;;;;;;;;6577743;22;20024;-81
2022/05/18 03:11:18;;;;;;;5.10;4.70;;;;;;;;;;6549681;22;20495;-81
2022/05/18 03:13:48;;;;;;;4.90;4.43;;;;;;;;;;6549286;22;20232;-81
2022/05/18 03:16:19;;;;;;;4.75;3.75;;;;;;;;;;6551902;22;20081;-81
2022/05/18 03:18:49;;;;;;;5.82;4.03;;;;;;;;;;6578594;22;19994;-81
2022/05/18 03:24:09;;;;;;;3.75;3.55;;;;;;;;;;6578376;22;20283;-81
2022/05/18 03:26:39;;;;;;;3.83;3.53;;;;;;;;;;6578661;22;20434;-81
2022/05/18 03:29:09;;;;;;;10.05;4.28;;;;;;;;;;6550819;22;20035;-81
2022/05/18 03:31:40;;;;;;;10.27;4.90;;;;;;;;;;6540438;22;20011;-62
2022/05/18 03:34:10;;;;;;;7.10;5.50;;;;;;;;;;6556162;22;20059;-59
2022/05/18 03:36:40;;;;;;;3.95;3.65;;;;;;;;;;6556233;22;20055;-60
2022/05/18 03:39:11;;;;;;;5.75;4.20;;;;;;;;;;6556114;22;20045;-59
2022/05/18 03:41:43;;;;;;;5.15;4.75;;;;;;;;;;6555894;22;19998;-59
2022/05/18 03:44:13;;;;;;;11.15;5.13;;;;;;;;;;6555860;22;20003;-59
2022/05/18 03:46:44;;;;;;;4.07;3.88;;;;;;;;;;6555729;22;20032;-58
2022/05/18 03:49:15;;;;;;;3.63;3.42;;;;;;;;;;6556147;22;20050;-60
2022/05/18 03:51:47;;;;;;;5.22;4.63;;;;;;;;;;6555679;22;19995;-59
2022/05/18 03:54:18;;;;;;;4.40;4.10;;;;;;;;;;6556107;22;20081;-59
2022/05/18 03:56:48;;;;;;;5.00;3.97;;;;;;;;;;6555974;22;20022;-60
2022/05/18 03:59:18;;;;;;;4.70;4.25;;;;;;;;;;6557514;22;19995;-65
2022/05/18 04:01:48;;;;;;;5.63;5.22;;;;;;;;;;6555940;22;20006;-59
2022/05/18 04:04:19;;;;;;;4.00;3.80;;;;;;;;;;6555246;22;20006;-59
2022/05/18 04:06:49;;;;;;;4.82;4.38;;;;;;;;;;6555557;22;19999;-59
2022/05/18 04:09:19;;;;;;;5.35;5.05;;;;;;;;;;6555703;22;19999;-59
2022/05/18 04:11:50;;;;;;;6.13;5.15;;;;;;;;;;6556199;22;20062;-59
2022/05/18 04:14:20;;;;;;;4.65;4.15;;;;;;;;;;6555394;22;20107;-59
2022/05/18 04:16:50;;;;;;;3.80;3.60;;;;;;;;;;6555717;22;20010;-64
2022/05/18 04:19:21;;;;;;;4.20;3.90;;;;;;;;;;6555185;22;19999;-60
2022/05/18 04:21:51;;;;;;;20.65;6.38;;;;;;;;;;6555228;22;20328;-60
2022/05/18 04:24:21;;;;;;;3.75;3.55;;;;;;;;;;6555242;22;20447;-60
2022/05/18 04:26:52;;;;;;;4.65;4.35;;;;;;;;;;6555370;22;20035;-60
2022/05/18 04:29:22;;;;;;;5.03;4.47;;;;;;;;;;6557098;22;20711;-60
2022/05/18 04:31:52;;;;;;;5.00;4.70;;;;;;;;;;6554994;22;20029;-60
2022/05/18 04:34:22;;;;;;;5.88;5.38;;;;;;;;;;6554753;22;20025;-60
2022/05/18 04:36:53;;;;;;;4.90;4.47;;;;;;;;;;6555170;22;20002;-59
2022/05/18 04:39:23;;;;;;;5.72;5.22;;;;;;;;;;6555432;22;19999;-59
2022/05/18 04:41:54;;;;;;;6.22;5.80;;;;;;;;;;6556534;22;20006;-62
2022/05/18 04:44:24;;;;;;;4.88;4.57;;;;;;;;;;6554433;22;20041;-60
2022/05/18 04:46:58;;;;;;;5.07;4.28;;;;;;;;;;6554981;22;20003;-61
2022/05/18 04:49:28;;;;;;;6.40;5.90;;;;;;;;;;6554997;22;19995;-61
2022/05/18 04:51:59;;;;;;;5.15;4.75;;;;;;;;;;6555574;22;20002;-59
2022/05/18 04:54:30;;;;;;;3.92;3.55;;;;;;;;;;6554613;22;20386;-59
2022/05/18 04:57:00;;;;;;;4.60;4.30;;;;;;;;;;6556659;22;20022;-60
2022/05/18 04:59:30;;;;;;;4.57;4.18;;;;;;;;;;6554787;22;20374;-63
2022/05/18 05:02:02;;;;;;;8.35;4.97;;;;;;;;;;6555061;22;20003;-59
2022/05/18 05:04:32;;;;;;;4.47;4.18;;;;;;;;;;6556094;22;20080;-60
2022/05/18 05:07:03;;;;;;;5.00;4.47;;;;;;;;;;6554886;22;20432;-60
2022/05/18 05:09:33;;;;;;;4.30;3.90;;;;;;;;;;6555278;22;19991;-59
2022/05/18 05:12:05;;;;;;;4.35;4.07;;;;;;;;;;6555037;22;20367;-59
2022/05/18 05:14:39;;;;;;;4.50;4.20;;;;;;;;;;6554563;22;20086;-60
2022/05/18 05:17:09;;;;;;;5.75;5.30;;;;;;;;;;6554990;22;20005;-58
2022/05/18 05:19:40;;;;;;;5.38;4.82;;;;;;;;;;6554700;22;20002;-59
2022/05/18 05:22:10;;;;;;;9.60;6.30;;;;;;;;;;6555227;22;20006;-62
2022/05/18 05:24:40;;;;;;;5.93;5.53;;;;;;;;;;6555850;22;20071;-61
2022/05/18 05:27:11;;;;;;;6.25;5.72;;;;;;;;;;6556336;22;20021;-61
2022/05/18 05:29:41;;;;;;;6.63;5.55;;;;;;;;;;6554305;22;20305;-59
2022/05/18 05:32:11;;;;;;;6.28;5.45;;;;;;;;;;6553576;22;20055;-61
2022/05/18 05:34:42;;;;;;;5.97;4.80;;;;;;;;;;6553490;22;20002;-59
2022/05/18 05:37:12;;;;;;;15.30;4.68;;;;;;;;;;6554971;22;20054;-62
2022/05/18 05:39:43;;;;;;;11.48;5.20;;;;;;;;;;6554870;22;20026;-59
2022/05/18 05:42:13;;;;;;;5.65;4.55;;;;;;;;;;6554951;22;19998;-59
2022/05/18 05:44:43;;;;;;;5.60;4.43;;;;;;;;;;6554615;22;20003;-58
2022/05/18 05:47:14;;;;;;;8.70;6.40;;;;;;;;;;6554851;22;19999;-61
2022/05/18 05:49:44;;;;;;;20.27;5.78;;;;;;;;;;6554507;22;20073;-59
2022/05/18 05:52:18;;;;;;;5.80;5.13;;;;;;;;;;6554451;22;20074;-59
2022/05/18 05:54:48;;;;;;;8.05;4.70;;;;;;;;;;6554566;22;20433;-58
2022/05/18 05:57:19;;;;;;;5.90;5.25;;;;;;;;;;6554551;22;20005;-60
2022/05/18 05:59:49;;;;;;;4.28;3.97;;;;;;;;;;6554374;22;20040;-57
2022/05/18 06:02:19;;;;;;;5.13;4.75;;;;;;;;;;6556519;22;20018;-61
2022/05/18 06:04:49;;;;;;;6.22;5.75;;;;;;;;;;6554115;22;19998;-59
2022/05/18 06:07:20;;;;;;;4.97;4.68;;;;;;;;;;6554159;22;20010;-59
2022/05/18 06:09:50;;;;;;;4.10;3.80;;;;;;;;;;6555009;22;20041;-59
2022/05/18 06:12:20;;;;;;;6.75;4.60;;;;;;;;;;6555163;22;19999;-59
2022/05/18 06:14:51;;;;;;;9.05;5.65;;;;;;;;;;6554509;22;20074;-63
2022/05/18 06:17:21;;;;;;;6.93;5.97;;;;;;;;;;6554676;22;19994;-60
2022/05/18 06:19:51;;;;;;;14.15;5.97;;;;;;;;;;6551621;22;20006;-59
2022/05/18 06:22:22;;;;;;;7.70;5.32;;;;;;;;;;6554874;22;20329;-60
2022/05/18 06:24:53;;;;;;;7.93;5.43;;;;;;;;;;6554161;22;20344;-58
2022/05/18 06:27:23;;;;;;;10.07;7.00;;;;;;;;;;6554586;22;20023;-58
2022/05/18 06:29:53;;;;;;;5.82;5.25;;;;;;;;;;6553527;22;20332;-58
2022/05/18 06:32:23;;;;;;;7.47;6.57;;;;;;;;;;6553816;22;20006;-59
2022/05/18 06:34:54;;;;;;;7.15;6.47;;;;;;;;;;6554221;22;19998;-61
2022/05/18 06:37:24;;;;;;;6.20;5.70;;;;;;;;;;6554312;22;19998;-57
2022/05/18 06:39:54;;;;;;;10.25;6.47;;;;;;;;;;6554654;22;20006;-58
2022/05/18 06:42:25;;;;;;;14.05;6.50;;;;;;;;;;6554825;22;19999;-61
2022/05/18 06:44:55;;;;;;;10.10;6.60;;;;;;;;;;6554164;22;20010;-58
2022/05/18 06:47:26;;;;;;;10.63;7.93;;;;;;;;;;6556095;22;19999;-58
2022/05/18 06:49:57;;;;;;;13.23;8.52;;;;;;;;;;6555685;22;20399;-57
2022/05/18 06:52:27;;;;;;;13.23;7.78;;;;;;;;;;6556624;22;20022;-56
2022/05/18 06:54:57;;;;;;;9.40;8.50;;;;;;;;;;6556103;22;20005;-59
2022/05/18 06:57:28;;;;;;;8.25;7.55;;;;;;;;;;6556458;22;19995;-59
2022/05/18 06:59:58;;;;;;;6.60;6.07;;;;;;;;;;6556556;22;20003;-59
2022/05/18 07:02:28;;;;;;;8.00;7.47;;;;;;;;;;6556278;22;20007;-58
2022/05/18 07:04:59;;;;;;;8.70;7.75;;;;;;;;;;6555770;22;20002;-59
2022/05/18 07:07:33;;;;;;;13.93;9.15;;;;;;;;;;6556427;22;20452;-60
2022/05/18 07:10:03;;;;;;;8.80;8.10;;;;;;;;;;6556005;22;20021;-60
2022/05/18 07:12:37;;;;;;;6.72;6.15;;;;;;;;;;6556431;22;19999;-60
2022/05/18 07:15:08;;;;;;;9.35;8.60;;;;;;;;;;6555976;22;20044;-65
2022/05/18 07:17:39;;;;;;;8.25;7.63;;;;;;;;;;6554369;22;19998;-60
2022/05/18 07:20:10;;;;;;;7.78;7.13;;;;;;;;;;6553367;22;20087;-60
2022/05/18 07:22:40;;;;;;;13.10;8.43;;;;;;;;;;6555882;22;20003;-66
2022/05/18 07:25:11;;;;;;;27.77;12.70;;;;;;;;;;6556156;22;20007;-59
2022/05/18 07:27:41;;;;;;;5.88;5.38;;;;;;;;;;6556512;22;20397;-59
2022/05/18 07:30:13;;;;;;;15.90;8.20;;;;;;;;;;6558004;22;19995;-59
2022/05/18 07:32:43;;;;;;;6.93;4.72;;;;;;;;;;6557864;22;20017;-63
2022/05/18 07:35:14;;;;;;;5.93;5.15;;;;;;;;;;6556269;22;20003;-59
2022/05/18 07:37:44;;;;;;;5.25;4.72;;;;;;;;;;6556520;22;19994;-58
2022/05/18 07:40:14;;;;;;;4.60;4.22;;;;;;;;;;6556321;22;20026;-61
2022/05/18 07:42:45;;;;;;;4.53;3.97;;;;;;;;;;6557805;22;20040;-63
2022/05/18 07:45:17;;;;;;;5.78;5.18;;;;;;;;;;6555630;22;19999;-60
2022/05/18 07:47:48;;;;;;;11.82;6.28;;;;;;;;;;6556127;22;20362;-60
2022/05/18 07:50:19;;;;;;;5.10;4.72;;;;;;;;;;6554221;22;20073;-60
2022/05/18 07:52:50;;;;;;;4.43;3.97;;;;;;;;;;6554307;22;20022;-60
2022/05/18 07:55:20;;;;;;;9.43;4.32;;;;;;;;;;6555182;22;20055;-60
2022/05/18 07:57:50;;;;;;;4.15;3.95;;;;;;;;;;6555704;22;20082;-59
2022/05/18 08:00:23;;;;;;;5.88;5.32;;;;;;;;;;6555878;22;20014;-65
2022/05/18 08:02:53;;;;;;;10.45;6.45;;;;;;;;;;6555697;22;19998;-61
2022/05/18 08:05:23;;;;;;;6.05;5.55;;;;;;;;;;6555456;22;20478;-61
2022/05/18 08:07:54;;;;;;;7.65;4.78;;;;;;;;;;6555775;22;20310;-60
2022/05/18 08:16:02;;;;;;;6.45;4.95;;;;;;;;;;6557674;22;20014;-62
2022/05/18 08:18:33;;;;;;;5.65;5.13;;;;;;;;;;6555861;22;20440;-60
2022/05/18 08:21:04;;;;;;;6.80;6.18;;;;;;;;;;6555962;22;20133;-62
2022/05/18 08:23:34;;;;;;;4.60;4.20;;;;;;;;;;6557696;22;19994;-60
2022/05/18 08:26:05;;;;;;;3.05;2.30;;;;;;;;;;6557489;22;20021;-59
2022/05/18 08:28:36;;;;;;;2.45;2.25;;;;;;;;;;6556661;22;20436;-61
2022/05/18 08:31:07;;;;;;;3.03;2.92;;;;;;;;;;6555663;22;20010;-59
2022/05/18 08:33:37;;;;;;;5.20;2.88;;;;;;;;;;6555533;22;19987;-60
2022/05/18 08:36:07;;;;;;;3.90;3.63;;;;;;;;;;6555787;22;20002;-60
2022/05/18 08:38:38;;;;;;;2.53;2.33;;;;;;;;;;6556284;22;20232;-59
2022/05/18 08:41:13;;;;;;;5.60;3.25;;;;;;;;;;6555528;22;20340;-60
2022/05/18 08:43:45;;;;;;;4.75;3.65;;;;;;;;;;6555448;22;19998;-60
2022/05/18 08:46:19;;;;;;;11.25;4.63;;;;;;;;;;6557166;22;20417;-60
2022/05/18 08:48:49;;;;;;;3.55;3.30;;;;;;;;;;6555451;22;20052;-61
2022/05/18 08:51:33;;;;;;;10.38;5.32;;;;;;;;;;6555682;22;19998;-59
2022/05/18 08:54:12;;;;;;;5.07;4.57;;;;;;;;;;6555022;22;20132;-60
2022/05/18 08:56:43;;;;;;;5.22;4.43;;;;;;;;;;6555765;22;20085;-61
2022/05/18 08:59:16;;;;;;;7.25;4.57;;;;;;;;;;6555548;22;20009;-58
2022/05/18 09:01:49;;;;;;;5.28;3.30;;;;;;;;;;6555442;22;20006;-63
2022/05/18 09:04:24;;;;;;;4.50;2.53;;;;;;;;;;6554577;22;19998;-59
2022/05/18 09:07:12;;;;;;;6.63;3.30;;;;;;;;;;6555468;22;20386;-59
2022/05/18 09:10:12;;;;;;;9.53;3.00;;;;;;;;;;6555600;22;20103;-61
2022/05/18 09:12:44;;;;;;;1.50;1.50;;;;;;;;;;6556497;22;20040;-59
2022/05/18 09:15:17;;;;;;;1.08;1.08;;;;;;;;;;6555281;22;20371;-63
2022/05/18 09:18:01;;;;;;;1.48;1.48;;;;;;;;;;6555386;22;20002;-58
2022/05/18 09:20:34;;;;;;;2.47;2.30;;;;;;;;;;6555650;22;20009;-60
2022/05/18 09:23:23;;;;;;;1.40;1.40;;;;;;;;;;6556484;22;20409;-58
2022/05/18 09:26:11;;;;;;;1.25;1.23;;;;;;;;;;6555117;22;20429;-59
2022/05/18 09:28:52;;;;;;;1.95;1.85;;;;;;;;;;6564710;22;20018;-59
2022/05/18 09:34:29;;;;;;;2.05;1.77;;;;;;;;;;6494137;22;20029;-60
2022/05/18 09:37:16;;;;;;;3.50;3.03;;;;;;;;;;6493578;22;19999;-59
2022/05/18 09:39:52;;;;;;;4.28;1.88;;;;;;;;;;6493605;22;20113;-59
2022/05/18 09:42:25;;;;;;;2.10;1.63;;;;;;;;;;6493580;22;20293;-59
2022/05/18 09:45:01;;;;;;;2.10;1.73;;;;;;;;;;6493127;22;19995;-58
2022/05/18 09:47:35;;;;;;;4.65;1.40;;;;;;;;;;6493296;22;20332;-59
2022/05/18 09:50:08;;;;;;;2.25;1.98;;;;;;;;;;6493680;22;19998;-60
2022/05/18 09:52:39;;;;;;;2.03;1.92;;;;;;;;;;6493517;22;20177;-61
2022/05/18 09:55:11;;;;;;;3.20;1.95;;;;;;;;;;6492845;22;20000;-60
2022/05/18 09:57:46;;;;;;;5.95;1.48;;;;;;;;;;6493625;22;20484;-60
2022/05/18 10:00:21;;;;;;;2.00;1.90;;;;;;;;;;6493284;22;19995;-58
2022/05/18 10:08:23;;;;;;;6.78;2.03;;;;;;;;;;6531453;22;20382;-58
2022/05/18 10:10:55;;;;;;;4.38;1.48;;;;;;;;;;6493214;22;20291;-61
2022/05/18 10:13:29;;;;;;;3.47;1.88;;;;;;;;;;6492880;22;20006;-61
2022/05/18 10:16:01;;;;;;;4.45;1.83;;;;;;;;;;6493095;22;20003;-59
2022/05/18 10:18:31;;;;;;;2.30;2.10;;;;;;;;;;6493288;22;20090;-59
2022/05/18 10:21:14;;;;;;;3.42;2.80;;;;;;;;;;6492939;22;20030;-60
2022/05/18 10:23:45;;;;;;;2.30;1.98;;;;;;;;;;6493343;22;20006;-61
2022/05/18 10:26:23;;;;;;;2.50;2.30;;;;;;;;;;6495433;22;20006;-56
2022/05/18 10:28:55;;;;;;;2.53;2.28;;;;;;;;;;6495585;22;20433;-57
2022/05/18 10:31:28;;;;;;;1.90;1.73;;;;;;;;;;6495101;22;20092;-58
2022/05/18 10:34:10;;;;;;;4.18;1.75;;;;;;;;;;6524949;22;20010;-57
2022/05/18 10:36:42;;;;;;;1.67;1.58;;;;;;;;;;6527540;22;20100;-55
2022/05/18 10:39:13;;;;;;;6.10;1.63;;;;;;;;;;6527721;22;19999;-58
2022/05/18 10:41:45;;;;;;;2.13;2.03;;;;;;;;;;6527630;22;20336;-62
2022/05/18 10:44:19;;;;;;;3.17;2.08;;;;;;;;;;6526921;22;20622;-57
2022/05/18 10:46:51;;;;;;;3.78;1.30;;;;;;;;;;6554829;22;20079;-59
2022/05/18 10:49:27;;;;;;;4.03;2.28;;;;;;;;;;6527111;22;20044;-58
2022/05/18 10:52:12;;;;;;;2.97;1.63;;;;;;;;;;6527014;22;20314;-59
2022/05/18 10:54:51;;;;;;;4.47;2.67;;;;;;;;;;6526768;22;20440;-57
2022/05/18 10:57:45;;;;;;;5.10;2.45;;;;;;;;;;6527044;22;20474;-57
2022/05/18 11:00:20;;;;;;;1.00;1.00;;;;;;;;;;6527040;22;20336;-59
2022/05/18 11:02:50;;;;;;;3.88;1.73;;;;;;;;;;6527754;22;20017;-57
2022/05/18 11:05:39;;;;;;;8.27;4.10;;;;;;;;;;6527384;22;19999;-58
2022/05/18 11:08:14;;;;;;;3.17;2.17;;;;;;;;;;6527328;22;19991;-59
2022/05/18 11:10:44;;;;;;;6.10;2.60;;;;;;;;;;6527568;22;19995;-58
2022/05/18 11:13:24;;;;;;;2.53;2.43;;;;;;;;;;6554714;22;19998;-59
2022/05/18 11:16:09;;;;;;;2.00;1.65;;;;;;;;;;6526880;22;20228;-58
2022/05/18 11:18:59;;;;;;;1.27;1.23;;;;;;;;;;6527649;22;20005;-59
2022/05/18 11:21:32;;;;;;;4.45;2.83;;;;;;;;;;6528923;22;20072;-59
2022/05/18 11:24:23;;;;;;;4.55;2.17;;;;;;;;;;6527411;22;20347;-59
2022/05/18 11:27:02;;;;;;;4.30;3.30;;;;;;;;;;6527092;22;20003;-60
2022/05/18 11:29:32;;;;;;;3.50;3.20;;;;;;;;;;6526877;22;19999;-60
2022/05/18 11:32:15;;;;;;;4.13;2.58;;;;;;;;;;6527177;22;20082;-61
2022/05/18 11:34:51;;;;;;;2.08;1.98;;;;;;;;;;6526197;22;20424;-60
2022/05/18 11:37:39;;;;;;;2.03;1.92;;;;;;;;;;6527388;22;20081;-60
2022/05/18 11:40:10;;;;;;;2.67;2.50;;;;;;;;;;6527173;22;20095;-60
2022/05/18 11:42:40;;;;;;;2.30;1.75;;;;;;;;;;6527104;22;20003;-60
2022/05/18 11:45:19;;;;;;;7.60;3.17;;;;;;;;;;6526342;22;20003;-60
2022/05/18 11:47:50;;;;;;;2.35;2.17;;;;;;;;;;6526647;22;20686;-59
2022/05/18 11:50:39;;;;;;;2.25;2.15;;;;;;;;;;6526686;22;20066;-59
2022/05/18 11:53:26;;;;;;;1.70;1.60;;;;;;;;;;6526747;22;20485;-61
2022/05/18 11:56:03;;;;;;;3.17;2.92;;;;;;;;;;6526583;22;20032;-59
2022/05/18 11:58:53;;;;;;;1.80;1.65;;;;;;;;;;6527021;22;19999;-59
2022/05/18 12:01:34;;;;;;;4.30;3.20;;;;;;;;;;6526555;22;20089;-60
2022/05/18 12:04:22;;;;;;;4.53;2.15;;;;;;;;;;6525867;22;20278;-60
2022/05/18 12:06:55;;;;;;;5.45;2.03;;;;;;;;;;6527263;22;19995;-57
2022/05/18 12:09:35;;;;;;;2.33;1.90;;;;;;;;;;6555524;22;19995;-61
2022/05/18 12:12:23;;;;;;;6.40;2.67;;;;;;;;;;6556727;22;19995;-58
2022/05/18 12:15:17;;;;;;;2.85;1.75;;;;;;;;;;6525056;22;20098;-61
2022/05/18 12:18:22;;;;;;;3.33;2.65;;;;;;;;;;6526575;22;20063;-62
2022/05/18 12:20:53;;;;;;;6.10;2.60;;;;;;;;;;6392347;23;20001;-61
2022/05/18 12:23:28;;;;;;;14.57;3.67;;;;;;;;;;6498863;22;20010;-60
2022/05/18 12:25:58;;;;;;;8.07;3.17;;;;;;;;;;6526177;22;20006;-61
2022/05/18 12:28:29;;;;;;;2.42;2.22;;;;;;;;;;6526382;22;20382;-61
2022/05/18 12:31:00;;;;;;;4.78;3.15;;;;;;;;;;6525705;22;20364;-60
2022/05/18 12:33:34;;;;;;;7.60;2.47;;;;;;;;;;6526583;22;20341;-61
2022/05/18 12:39:14;;;;;;;2.35;2.15;;;;;;;;;;6553972;22;19991;-61
2022/05/18 12:41:48;;;;;;;4.35;2.55;;;;;;;;;;6527186;22;20519;-61
2022/05/18 12:44:23;;;;;;;2.08;1.98;;;;;;;;;;6526688;22;20098;-61
2022/05/18 12:46:55;;;;;;;1.65;1.55;;;;;;;;;;6526439;22;20091;-61
2022/05/18 12:49:30;;;;;;;4.65;3.08;;;;;;;;;;6526285;22;20002;-61
2022/05/18 12:55:27;;;;;;;6.83;3.27;;;;;;;;;;6553642;22;20009;-60
2022/05/18 12:58:09;;;;;;;2.40;2.28;;;;;;;;;;6554683;22;20726;-61
2022/05/18 13:00:52;;;;;;;5.10;3.38;;;;;;;;;;6525886;22;20433;-61
2022/05/18 13:03:36;;;;;;;5.93;3.22;;;;;;;;;;6525603;22;19995;-61
2022/05/18 13:06:11;;;;;;;3.55;2.55;;;;;;;;;;6525621;22;20034;-61
2022/05/18 13:08:48;;;;;;;4.95;1.48;;;;;;;;;;6525573;22;19995;-61
2022/05/18 13:11:18;;;;;;;5.05;4.57;;;;;;;;;;6525344;22;20102;-61
2022/05/18 13:14:06;;;;;;;3.00;1.87;;;;;;;;;;6524865;22;20009;-61
2022/05/18 13:16:36;;;;;;;3.53;2.57;;;;;;;;;;6525974;22;20316;-61
2022/05/18 13:19:13;;;;;;;3.45;3.15;;;;;;;;;;6526024;22;20599;-61
2022/05/18 13:21:52;;;;;;;14.88;3.30;;;;;;;;;;6526352;22;19991;-61
2022/05/18 13:24:42;;;;;;;6.43;2.90;;;;;;;;;;6525813;22;19994;-60
2022/05/18 13:27:15;;;;;;;3.70;1.67;;;;;;;;;;6499413;22;20003;-61
2022/05/18 13:29:47;;;;;;;3.55;2.78;;;;;;;;;;6525837;22;20018;-61
2022/05/18 13:32:19;;;;;;;1.77;1.67;;;;;;;;;;6525882;22;20333;-61
2022/05/18 13:34:51;;;;;;;2.70;2.03;;;;;;;;;;6525769;22;20003;-61
2022/05/18 13:37:21;;;;;;;6.22;3.00;;;;;;;;;;6526029;22;20445;-61
2022/05/18 13:39:52;;;;;;;3.67;1.80;;;;;;;;;;6526462;22;20006;-61
2022/05/18 13:42:27;;;;;;;3.57;3.37;;;;;;;;;;6525755;22;20003;-61
2022/05/18 13:45:00;;;;;;;2.30;1.85;;;;;;;;;;6525203;22;20267;-60
2022/05/18 13:47:32;;;;;;;4.85;2.65;;;;;;;;;;6525530;22;20030;-61
2022/05/18 13:50:04;;;;;;;6.05;2.50;;;;;;;;;;6525652;22;20060;-61
2022/05/18 13:52:41;;;;;;;1.77;1.67;;;;;;;;;;6525408;22;20136;-60
2022/05/18 13:55:13;;;;;;;2.95;1.55;;;;;;;;;;6525345;22;20010;-61
2022/05/18 13:57:48;;;;;;;5.32;2.75;;;;;;;;;;6525181;22;20003;-60
2022/05/18 14:00:38;;;;;;;2.45;2.25;;;;;;;;;;6525213;22;20002;-59
2022/05/18 14:03:11;;;;;;;3.55;2.00;;;;;;;;;;6499077;22;20007;-61
2022/05/18 14:05:42;;;;;;;3.58;1.90;;;;;;;;;;6524971;22;20006;-61
2022/05/18 14:08:25;;;;;;;4.45;2.60;;;;;;;;;;6525478;22;20391;-61
2022/05/18 14:10:55;;;;;;;2.45;2.25;;;;;;;;;;6525080;22;20029;-60
2022/05/18 14:13:26;;;;;;;3.53;1.80;;;;;;;;;;6525262;22;20484;-61
2022/05/18 14:15:57;;;;;;;10.07;3.92;;;;;;;;;;6525538;22;20003;-61
2022/05/18 14:18:48;;;;;;;3.38;2.38;;;;;;;;;;6525426;22;20083;-60
2022/05/18 14:21:20;;;;;;;4.95;2.50;;;;;;;;;;6525111;22;20582;-61
2022/05/18 14:23:57;;;;;;;3.58;3.15;;;;;;;;;;6524891;22;19999;-61
2022/05/18 14:26:30;;;;;;;1.90;1.70;;;;;;;;;;6525436;22;19999;-59
2022/05/18 14:29:01;;;;;;;7.55;2.03;;;;;;;;;;6525557;22;20074;-61
2022/05/18 14:31:32;;;;;;;2.28;2.13;;;;;;;;;;6525031;22;19999;-59
2022/05/18 14:34:06;;;;;;;5.68;2.53;;;;;;;;;;6552639;22;20011;-61
2022/05/18 14:36:50;;;;;;;1.50;1.42;;;;;;;;;;6525574;22;20513;-60
2022/05/18 14:39:25;;;;;;;2.05;1.30;;;;;;;;;;6525549;22;20005;-60
2022/05/18 14:41:56;;;;;;;1.65;1.48;;;;;;;;;;6525242;22;20086;-60
2022/05/18 14:44:35;;;;;;;5.97;2.15;;;;;;;;;;6525268;22;20006;-60
2022/05/18 14:47:25;;;;;;;5.68;3.40;;;;;;;;;;6525709;22;19995;-60
2022/05/18 14:50:03;;;;;;;1.70;1.60;;;;;;;;;;6525935;22;20030;-61
2022/05/18 14:52:35;;;;;;;2.40;1.70;;;;;;;;;;6526121;22;20002;-60
2022/05/18 14:55:07;;;;;;;2.17;2.08;;;;;;;;;;6525503;22;20003;-60
2022/05/18 14:57:39;;;;;;;3.13;1.30;;;;;;;;;;6526100;22;20006;-63
2022/05/18 15:00:13;;;;;;;2.45;2.17;;;;;;;;;;6525739;22;20413;-60
2022/05/18 15:03:02;;;;;;;4.97;1.77;;;;;;;;;;6525701;22;20036;-61
2022/05/18 15:11:49;;;;;;;1.67;1.58;;;;;;;;;;6554485;22;20332;-60
2022/05/18 15:14:20;;;;;;;5.70;2.40;;;;;;;;;;6527070;22;20009;-61
2022/05/18 15:16:55;;;;;;;4.47;2.28;;;;;;;;;;6554661;22;20018;-60
2022/05/18 15:19:45;;;;;;;5.80;1.20;;;;;;;;;;6527486;22;20401;-61
2022/05/18 15:22:30;;;;;;;1.77;1.67;;;;;;;;;;6526314;22;20409;-58
2022/05/18 15:25:19;;;;;;;1.55;1.50;;;;;;;;;;6526736;22;20013;-59
2022/05/18 15:27:49;;;;;;;2.20;1.73;;;;;;;;;;6526805;22;20032;-60
2022/05/18 15:30:19;;;;;;;1.50;1.40;;;;;;;;;;6526866;22;20004;-61
2022/05/18 15:32:50;;;;;;;1.83;1.73;;;;;;;;;;6510469;22;20249;-81
2022/05/18 15:35:22;;;;;;;1.40;1.40;;;;;;;;;;6508952;22;20003;-80
2022/05/18 15:37:53;;;;;;;2.40;1.80;;;;;;;;;;6507200;22;20003;-80
2022/05/18 15:40:23;;;;;;;1.50;1.30;;;;;;;;;;6508468;22;20055;-82
2022/05/18 15:42:54;;;;;;;1.05;1.05;;;;;;;;;;6510107;22;20331;-82
2022/05/18 15:45:25;;;;;;;5.03;2.20;;;;;;;;;;6537934;22;20269;-80
2022/05/18 15:48:05;;;;;;;1.25;1.15;;;;;;;;;;6539163;22;19991;-81